Ana Sayfa
METAR-TAF:

METAR-TAF

Havaalanları :

Pella Municipal Airport

Pella, Iowa, Amerika Birleşik Devletleri

Enlem: 41-24N, Boylam: 092-56W, yükseklik: 270 m

Güncel hava durumu gözlemi

Rapor saat 12:55 UTC de 29 dakika önce yapıldı.
Rüzgar güneydan 15 kt ve 19 kt'a kadar ani rüzgarlar
Sıcaklık 25°C
Nem 83%
Basınç 1011 hPa
Görüş mesafesi: 16.1 km
2000 ft yükseklikte parçalı çok bulutlu
2500 ft yükseklikte parçalı çok bulutlu

METAR: KPEA 181255Z AUTO 18015G19KT 10SM BKN020 BKN025 25/22 A2984 RMK AO2 T02510216

Saat: 08:24 (13:24 UTC)


TAF: eksik

4.000'den fazla havaalanı için hava durumu gözlemleri ve tahminleri (METAR ve TAF raporları).

Kullanılabilir istasyonlar harita üzerinde sarı ve kırmızı noktalarla gösterilir.

İstasyonun adını görmek için fareyi noktanın üzerinde gezdirin.

Sonrasında hava gözlem ve tahminlerini görmek için tıklayın.

Haritayı değiştirmek için: yaklaştırmak için siyah artı işaretli yeşil düğmeye ve uzaklaştırmak için de eksi işaretli düğmeye hızla tıklayın; bitişik haritalar için yeşil okları kullanın.


METAR-TAF: